Flag for Germany

Past Weather in Leinfelden-Echterdingen, Baden-Württemberg, Germany — Yesterday and Last 2 Weeks

Currently: 34 °F. Clear. (Weather station: Stuttgart-Echterdingen, Germany). See more current weather

Past Weather in Leinfelden-Echterdingen — Graph

°F

Leinfelden-Echterdingen Temperature Yesterday

Maximum temperature yesterday: 61 °F (at 2:20 pm)
Minimum temperature yesterday: 28 °F (at 5:20 am)
Average temperature yesterday: 42 °F

High & Low Weather Summary for the Past Weeks

 TemperatureHumidityPressure
High70 °F (Feb 25, 3:50 pm)100% (Feb 18, 1:20 am)30.60 "Hg (Feb 18, 1:20 am)
Low27 °F (Mar 1, 3:50 am)31% (Feb 25, 4:50 pm)29.89 "Hg (Feb 18, 5:50 pm)
Average44 °F74%30.30 "Hg
* Reported Feb 16 2:20 am — Mar 3 2:50 am, Leinfelden-Echterdingen. Weather by CustomWeather, © 2021

Note: Actual official high and low records may vary slightly from our data, if they occured in-between our weather recording intervals... More about our weather records

Leinfelden-Echterdingen Weather History for the Previous 24 Hours

Scroll right to see more
 ConditionsComfort  
Time TempWeatherWind HumidityBarometerVisibility
2:50 am
Wed, Mar 3
34 °FClear.No wind87%30.42 "Hg10 mi
2:20 am34 °FClear.2 mph87%30.42 "Hg10 mi
1:50 am34 °FClear.1 mph87%30.45 "Hg10 mi
1:20 am36 °FClear.1 mph81%30.45 "Hg10 mi
12:50 am36 °FClear.1 mph81%30.42 "Hg10 mi
12:20 am34 °FClear.2 mph81%30.45 "Hg10 mi
11:50 pm
Tue, Mar 2
34 °FClear.6 mph81%30.45 "Hg10 mi
11:20 pm37 °FClear.3 mph81%30.45 "Hg10 mi
10:50 pm37 °FClear.2 mph81%30.45 "Hg10 mi
10:20 pm37 °FClear.1 mph75%30.45 "Hg10 mi
9:50 pm37 °FClear.3 mph81%30.45 "Hg10 mi
9:20 pm37 °FClear.2 mph75%30.45 "Hg10 mi
8:50 pm39 °FClear.2 mph70%30.45 "Hg10 mi
8:20 pm41 °FClear.2 mph66%30.45 "Hg10 mi
7:50 pm43 °FClear.2 mph66%30.45 "Hg10 mi
7:20 pm46 °FClear.5 mph57%30.45 "Hg10 mi
6:50 pm48 °FClear.5 mph54%30.45 "Hg10 mi
6:20 pm54 °FClear.5 mph44%30.42 "Hg10 mi
5:50 pm55 °FSunny.5 mph44%30.42 "Hg10 mi
5:20 pm57 °FSunny.7 mph41%30.42 "Hg10 mi
4:50 pm59 °FPassing clouds.7 mph42%30.42 "HgN/A
4:20 pm61 °FPassing clouds.6 mph36%30.42 "HgN/A
3:50 pm61 °FPassing clouds.3 mph34%30.42 "HgN/A
3:20 pm61 °FSunny.2 mph34%30.42 "Hg10 mi
2:50 pm61 °FSunny.2 mph36%30.42 "Hg10 mi
2:20 pm61 °FSunny.2 mph34%30.45 "Hg10 mi
1:50 pm59 °FSunny.2 mph36%30.45 "Hg10 mi
1:20 pm57 °FSunny.1 mph41%30.45 "Hg10 mi
12:50 pm55 °FSunny.2 mph47%30.45 "Hg10 mi
12:20 pm54 °FSunny.2 mph51%30.45 "Hg10 mi
11:50 am50 °FPassing clouds.3 mph58%30.48 "HgN/A
10:50 am45 °FSunny.3 mph66%30.48 "Hg10 mi
10:20 am43 °FPassing clouds.3 mph71%30.48 "HgN/A
9:50 am41 °FSunny.2 mph70%30.48 "Hg10 mi
9:20 am39 °FSunny.2 mph70%30.45 "Hg10 mi
8:50 am37 °FSunny.2 mph75%30.45 "Hg10 mi
8:20 am36 °FSunny.1 mph75%30.45 "Hg10 mi
7:50 am32 °FSunny.1 mph87%30.45 "Hg10 mi
7:20 am28 °FSunny.1 mph93%30.45 "Hg10 mi
6:50 am28 °FClear.1 mph93%30.45 "Hg10 mi
6:20 am28 °FClear.2 mph93%30.45 "Hg10 mi
5:50 am28 °FClear.2 mph93%30.45 "Hg10 mi
5:20 am28 °FClear.1 mph86%30.42 "Hg10 mi
4:50 am30 °FClear.1 mph86%30.42 "Hg10 mi
4:20 am30 °FClear.1 mph86%30.42 "Hg10 mi
Weather by CustomWeather, © 2021

See weather overview